sensor_id;sensor_type;location;lat;lon;timestamp;P1;durP1;ratioP1;P2;durP2;ratioP2
10715;SDS011;5409;42.620;23.316;2024-01-16T00:02:03;14.23;;;8.15;;
10715;SDS011;5409;42.620;23.316;2024-01-16T00:04:29;9.30;;;7.15;;
10715;SDS011;5409;42.620;23.316;2024-01-16T00:06:56;14.68;;;9.35;;
10715;SDS011;5409;42.620;23.316;2024-01-16T00:09:21;11.48;;;9.13;;
10715;SDS011;5409;42.620;23.316;2024-01-16T00:11:46;11.10;;;5.63;;
10715;SDS011;5409;42.620;23.316;2024-01-16T00:14:12;10.02;;;6.05;;
10715;SDS011;5409;42.620;23.316;2024-01-16T00:16:43;3.55;;;3.05;;
10715;SDS011;5409;42.620;23.316;2024-01-16T00:19:10;4.28;;;3.40;;
10715;SDS011;5409;42.620;23.316;2024-01-16T00:21:40;3.00;;;2.80;;
10715;SDS011;5409;42.620;23.316;2024-01-16T00:24:06;7.95;;;6.45;;
10715;SDS011;5409;42.620;23.316;2024-01-16T00:26:32;11.50;;;7.25;;
10715;SDS011;5409;42.620;23.316;2024-01-16T00:28:57;4.38;;;2.70;;
10715;SDS011;5409;42.620;23.316;2024-01-16T00:31:22;2.40;;;2.30;;
10715;SDS011;5409;42.620;23.316;2024-01-16T00:33:48;2.60;;;2.40;;
10715;SDS011;5409;42.620;23.316;2024-01-16T00:53:11;10.30;;;7.07;;
10715;SDS011;5409;42.620;23.316;2024-01-16T00:55:37;7.72;;;5.43;;
10715;SDS011;5409;42.620;23.316;2024-01-16T00:58:02;8.75;;;6.22;;
10715;SDS011;5409;42.620;23.316;2024-01-16T01:00:27;12.98;;;7.20;;
10715;SDS011;5409;42.620;23.316;2024-01-16T01:02:55;10.27;;;5.65;;
10715;SDS011;5409;42.620;23.316;2024-01-16T01:05:21;7.68;;;5.43;;
10715;SDS011;5409;42.620;23.316;2024-01-16T01:07:49;13.63;;;7.78;;
10715;SDS011;5409;42.620;23.316;2024-01-16T01:10:15;8.18;;;5.93;;
10715;SDS011;5409;42.620;23.316;2024-01-16T01:12:40;4.40;;;2.53;;
10715;SDS011;5409;42.620;23.316;2024-01-16T01:15:05;8.20;;;5.38;;
10715;SDS011;5409;42.620;23.316;2024-01-16T01:17:31;8.10;;;5.32;;
10715;SDS011;5409;42.620;23.316;2024-01-16T01:19:56;9.57;;;5.07;;
10715;SDS011;5409;42.620;23.316;2024-01-16T01:22:22;6.25;;;4.35;;
10715;SDS011;5409;42.620;23.316;2024-01-16T01:24:47;4.25;;;3.72;;
10715;SDS011;5409;42.620;23.316;2024-01-16T01:27:12;7.35;;;4.57;;
10715;SDS011;5409;42.620;23.316;2024-01-16T01:29:38;8.70;;;4.63;;
10715;SDS011;5409;42.620;23.316;2024-01-16T01:32:03;11.05;;;6.40;;
10715;SDS011;5409;42.620;23.316;2024-01-16T01:34:28;9.18;;;5.03;;
10715;SDS011;5409;42.620;23.316;2024-01-16T01:36:54;9.35;;;5.82;;
10715;SDS011;5409;42.620;23.316;2024-01-16T01:39:22;9.80;;;6.10;;
10715;SDS011;5409;42.620;23.316;2024-01-16T01:41:47;8.95;;;5.40;;
10715;SDS011;5409;42.620;23.316;2024-01-16T01:44:13;9.02;;;5.03;;
10715;SDS011;5409;42.620;23.316;2024-01-16T01:46:41;8.00;;;4.72;;
10715;SDS011;5409;42.620;23.316;2024-01-16T01:49:07;7.43;;;5.38;;
10715;SDS011;5409;42.620;23.316;2024-01-16T01:51:33;3.88;;;2.38;;
10715;SDS011;5409;42.620;23.316;2024-01-16T01:53:58;7.15;;;4.40;;
10715;SDS011;5409;42.620;23.316;2024-01-16T01:56:26;4.03;;;2.65;;
10715;SDS011;5409;42.620;23.316;2024-01-16T01:58:53;7.15;;;4.32;;
10715;SDS011;5409;42.620;23.316;2024-01-16T02:01:21;6.10;;;4.65;;
10715;SDS011;5409;42.620;23.316;2024-01-16T02:03:47;7.05;;;4.18;;
10715;SDS011;5409;42.620;23.316;2024-01-16T02:06:15;6.40;;;4.60;;
10715;SDS011;5409;42.620;23.316;2024-01-16T02:08:41;4.15;;;3.70;;
10715;SDS011;5409;42.620;23.316;2024-01-16T02:11:07;8.40;;;3.40;;
10715;SDS011;5409;42.620;23.316;2024-01-16T02:13:33;3.22;;;2.75;;
10715;SDS011;5409;42.620;23.316;2024-01-16T02:15:58;4.68;;;3.00;;
10715;SDS011;5409;42.620;23.316;2024-01-16T02:18:24;3.10;;;2.83;;
10715;SDS011;5409;42.620;23.316;2024-01-16T02:20:49;4.95;;;2.22;;
10715;SDS011;5409;42.620;23.316;2024-01-16T02:23:15;9.00;;;4.72;;
10715;SDS011;5409;42.620;23.316;2024-01-16T02:25:43;4.80;;;3.15;;
10715;SDS011;5409;42.620;23.316;2024-01-16T02:28:09;4.18;;;3.40;;
10715;SDS011;5409;42.620;23.316;2024-01-16T02:30:34;5.72;;;3.28;;
10715;SDS011;5409;42.620;23.316;2024-01-16T02:33:00;14.45;;;7.72;;
10715;SDS011;5409;42.620;23.316;2024-01-16T02:35:25;9.05;;;5.03;;
10715;SDS011;5409;42.620;23.316;2024-01-16T02:37:50;5.85;;;3.45;;
10715;SDS011;5409;42.620;23.316;2024-01-16T02:40:16;4.93;;;3.25;;
10715;SDS011;5409;42.620;23.316;2024-01-16T02:42:41;5.20;;;3.65;;
10715;SDS011;5409;42.620;23.316;2024-01-16T02:45:07;3.72;;;2.88;;
10715;SDS011;5409;42.620;23.316;2024-01-16T02:47:33;2.78;;;2.42;;
10715;SDS011;5409;42.620;23.316;2024-01-16T02:49:59;3.67;;;3.22;;
10715;SDS011;5409;42.620;23.316;2024-01-16T02:52:24;3.13;;;2.50;;
10715;SDS011;5409;42.620;23.316;2024-01-16T02:54:49;2.15;;;1.95;;
10715;SDS011;5409;42.620;23.316;2024-01-16T02:57:15;2.25;;;1.77;;
10715;SDS011;5409;42.620;23.316;2024-01-16T02:59:43;4.07;;;2.30;;
10715;SDS011;5409;42.620;23.316;2024-01-16T03:02:11;2.70;;;2.45;;
10715;SDS011;5409;42.620;23.316;2024-01-16T03:04:38;2.65;;;2.25;;
10715;SDS011;5409;42.620;23.316;2024-01-16T03:07:04;2.20;;;1.50;;
10715;SDS011;5409;42.620;23.316;2024-01-16T03:09:29;2.83;;;2.63;;
10715;SDS011;5409;42.620;23.316;2024-01-16T03:11:55;7.22;;;4.38;;
10715;SDS011;5409;42.620;23.316;2024-01-16T03:14:20;4.05;;;3.13;;
10715;SDS011;5409;42.620;23.316;2024-01-16T03:16:45;2.47;;;2.20;;
10715;SDS011;5409;42.620;23.316;2024-01-16T03:19:11;3.17;;;2.60;;
10715;SDS011;5409;42.620;23.316;2024-01-16T03:21:37;2.75;;;2.55;;
10715;SDS011;5409;42.620;23.316;2024-01-16T03:24:03;3.50;;;2.72;;
10715;SDS011;5409;42.620;23.316;2024-01-16T03:26:30;7.53;;;3.28;;
10715;SDS011;5409;42.620;23.316;2024-01-16T03:28:56;3.20;;;2.35;;
10715;SDS011;5409;42.620;23.316;2024-01-16T03:31:21;3.15;;;2.60;;
10715;SDS011;5409;42.620;23.316;2024-01-16T03:33:47;2.28;;;2.03;;
10715;SDS011;5409;42.620;23.316;2024-01-16T03:36:12;3.25;;;2.38;;
10715;SDS011;5409;42.620;23.316;2024-01-16T03:38:38;4.03;;;2.30;;
10715;SDS011;5409;42.620;23.316;2024-01-16T03:41:04;3.22;;;1.98;;
10715;SDS011;5409;42.620;23.316;2024-01-16T03:43:32;5.05;;;3.10;;
10715;SDS011;5409;42.620;23.316;2024-01-16T03:45:59;3.92;;;2.83;;
10715;SDS011;5409;42.620;23.316;2024-01-16T03:48:24;4.78;;;2.92;;
10715;SDS011;5409;42.620;23.316;2024-01-16T03:50:50;2.90;;;2.45;;
10715;SDS011;5409;42.620;23.316;2024-01-16T03:53:15;2.67;;;2.45;;
10715;SDS011;5409;42.620;23.316;2024-01-16T03:55:40;3.28;;;3.00;;
10715;SDS011;5409;42.620;23.316;2024-01-16T03:58:06;3.63;;;3.33;;
10715;SDS011;5409;42.620;23.316;2024-01-16T04:00:31;3.78;;;3.45;;
10715;SDS011;5409;42.620;23.316;2024-01-16T04:02:56;3.25;;;3.00;;
10715;SDS011;5409;42.620;23.316;2024-01-16T04:05:22;1.83;;;1.73;;
10715;SDS011;5409;42.620;23.316;2024-01-16T04:07:47;4.32;;;2.67;;
10715;SDS011;5409;42.620;23.316;2024-01-16T04:10:13;2.17;;;2.08;;
10715;SDS011;5409;42.620;23.316;2024-01-16T04:12:38;2.13;;;1.85;;
10715;SDS011;5409;42.620;23.316;2024-01-16T04:15:04;2.65;;;2.45;;
10715;SDS011;5409;42.620;23.316;2024-01-16T04:17:29;2.53;;;2.33;;
10715;SDS011;5409;42.620;23.316;2024-01-16T04:19:55;1.88;;;1.67;;
10715;SDS011;5409;42.620;23.316;2024-01-16T04:22:20;2.13;;;2.00;;
10715;SDS011;5409;42.620;23.316;2024-01-16T04:24:46;1.70;;;1.45;;
10715;SDS011;5409;42.620;23.316;2024-01-16T04:27:12;1.35;;;1.25;;
10715;SDS011;5409;42.620;23.316;2024-01-16T04:29:38;1.17;;;1.17;;
10715;SDS011;5409;42.620;23.316;2024-01-16T04:32:03;3.38;;;3.08;;
10715;SDS011;5409;42.620;23.316;2024-01-16T04:34:29;2.78;;;2.58;;
10715;SDS011;5409;42.620;23.316;2024-01-16T04:36:54;3.28;;;3.08;;
10715;SDS011;5409;42.620;23.316;2024-01-16T04:39:20;3.22;;;2.97;;
10715;SDS011;5409;42.620;23.316;2024-01-16T04:41:47;3.83;;;3.33;;
10715;SDS011;5409;42.620;23.316;2024-01-16T04:44:16;3.53;;;2.95;;
10715;SDS011;5409;42.620;23.316;2024-01-16T04:46:41;5.22;;;3.42;;
10715;SDS011;5409;42.620;23.316;2024-01-16T04:49:06;1.80;;;1.70;;
10715;SDS011;5409;42.620;23.316;2024-01-16T04:51:32;2.10;;;1.98;;
10715;SDS011;5409;42.620;23.316;2024-01-16T04:53:58;3.50;;;2.83;;
10715;SDS011;5409;42.620;23.316;2024-01-16T04:56:23;1.35;;;1.25;;
10715;SDS011;5409;42.620;23.316;2024-01-16T04:58:48;0.80;;;0.80;;
10715;SDS011;5409;42.620;23.316;2024-01-16T05:01:14;0.90;;;0.90;;
10715;SDS011;5409;42.620;23.316;2024-01-16T05:03:39;1.35;;;1.20;;
10715;SDS011;5409;42.620;23.316;2024-01-16T05:06:05;2.13;;;2.03;;
10715;SDS011;5409;42.620;23.316;2024-01-16T05:08:36;1.50;;;1.40;;
10715;SDS011;5409;42.620;23.316;2024-01-16T05:11:02;1.33;;;1.23;;
10715;SDS011;5409;42.620;23.316;2024-01-16T05:13:27;1.42;;;1.38;;
10715;SDS011;5409;42.620;23.316;2024-01-16T05:15:52;1.52;;;1.50;;
10715;SDS011;5409;42.620;23.316;2024-01-16T05:18:18;1.30;;;1.30;;
10715;SDS011;5409;42.620;23.316;2024-01-16T05:20:44;2.78;;;2.08;;
10715;SDS011;5409;42.620;23.316;2024-01-16T05:23:09;1.42;;;1.42;;
10715;SDS011;5409;42.620;23.316;2024-01-16T05:25:34;1.73;;;1.63;;
10715;SDS011;5409;42.620;23.316;2024-01-16T05:28:00;2.17;;;1.98;;
10715;SDS011;5409;42.620;23.316;2024-01-16T05:30:25;2.72;;;2.13;;
10715;SDS011;5409;42.620;23.316;2024-01-16T05:32:51;2.08;;;0.95;;
10715;SDS011;5409;42.620;23.316;2024-01-16T05:35:17;0.77;;;0.77;;
10715;SDS011;5409;42.620;23.316;2024-01-16T05:37:42;1.15;;;1.15;;
10715;SDS011;5409;42.620;23.316;2024-01-16T05:40:08;1.55;;;1.42;;
10715;SDS011;5409;42.620;23.316;2024-01-16T05:42:34;0.85;;;0.85;;
10715;SDS011;5409;42.620;23.316;2024-01-16T05:44:59;0.82;;;0.82;;
10715;SDS011;5409;42.620;23.316;2024-01-16T05:47:24;0.60;;;0.60;;
10715;SDS011;5409;42.620;23.316;2024-01-16T05:49:52;0.57;;;0.57;;
10715;SDS011;5409;42.620;23.316;2024-01-16T05:52:18;1.48;;;1.08;;
10715;SDS011;5409;42.620;23.316;2024-01-16T05:54:44;1.48;;;1.00;;
10715;SDS011;5409;42.620;23.316;2024-01-16T05:57:09;1.58;;;0.90;;
10715;SDS011;5409;42.620;23.316;2024-01-16T05:59:34;1.83;;;1.73;;
10715;SDS011;5409;42.620;23.316;2024-01-16T06:02:00;4.07;;;1.98;;
10715;SDS011;5409;42.620;23.316;2024-01-16T06:04:25;0.70;;;0.70;;
10715;SDS011;5409;42.620;23.316;2024-01-16T06:06:50;5.47;;;1.45;;
10715;SDS011;5409;42.620;23.316;2024-01-16T06:09:16;1.58;;;1.35;;
10715;SDS011;5409;42.620;23.316;2024-01-16T06:11:41;1.00;;;1.00;;
10715;SDS011;5409;42.620;23.316;2024-01-16T06:14:07;1.00;;;1.00;;
10715;SDS011;5409;42.620;23.316;2024-01-16T06:16:32;4.32;;;2.53;;
10715;SDS011;5409;42.620;23.316;2024-01-16T06:18:58;0.70;;;0.70;;
10715;SDS011;5409;42.620;23.316;2024-01-16T06:21:23;0.43;;;0.43;;
10715;SDS011;5409;42.620;23.316;2024-01-16T06:23:49;2.08;;;1.02;;
10715;SDS011;5409;42.620;23.316;2024-01-16T06:26:14;0.60;;;0.60;;
10715;SDS011;5409;42.620;23.316;2024-01-16T06:28:40;0.77;;;0.77;;
10715;SDS011;5409;42.620;23.316;2024-01-16T06:31:08;1.60;;;1.33;;
10715;SDS011;5409;42.620;23.316;2024-01-16T06:33:33;1.77;;;0.73;;
10715;SDS011;5409;42.620;23.316;2024-01-16T06:35:59;1.35;;;1.35;;
10715;SDS011;5409;42.620;23.316;2024-01-16T06:38:24;1.35;;;1.10;;
10715;SDS011;5409;42.620;23.316;2024-01-16T06:40:50;2.92;;;1.80;;
10715;SDS011;5409;42.620;23.316;2024-01-16T06:43:15;0.70;;;0.70;;
10715;SDS011;5409;42.620;23.316;2024-01-16T06:45:44;0.85;;;0.85;;
10715;SDS011;5409;42.620;23.316;2024-01-16T06:48:09;1.40;;;1.35;;
10715;SDS011;5409;42.620;23.316;2024-01-16T06:50:35;1.63;;;1.52;;
10715;SDS011;5409;42.620;23.316;2024-01-16T06:53:01;0.85;;;0.85;;
10715;SDS011;5409;42.620;23.316;2024-01-16T06:55:26;0.52;;;0.52;;
10715;SDS011;5409;42.620;23.316;2024-01-16T06:57:52;1.00;;;1.00;;
10715;SDS011;5409;42.620;23.316;2024-01-16T07:00:17;0.93;;;0.93;;
10715;SDS011;5409;42.620;23.316;2024-01-16T07:02:43;0.80;;;0.77;;
10715;SDS011;5409;42.620;23.316;2024-01-16T07:05:08;0.50;;;0.50;;
10715;SDS011;5409;42.620;23.316;2024-01-16T07:07:34;1.08;;;1.00;;
10715;SDS011;5409;42.620;23.316;2024-01-16T07:10:00;0.70;;;0.70;;
10715;SDS011;5409;42.620;23.316;2024-01-16T07:12:25;1.23;;;1.13;;
10715;SDS011;5409;42.620;23.316;2024-01-16T07:14:50;0.93;;;0.93;;
10715;SDS011;5409;42.620;23.316;2024-01-16T07:17:16;2.70;;;1.63;;
10715;SDS011;5409;42.620;23.316;2024-01-16T07:19:41;1.13;;;1.02;;
10715;SDS011;5409;42.620;23.316;2024-01-16T07:22:06;0.80;;;0.80;;
10715;SDS011;5409;42.620;23.316;2024-01-16T07:24:32;0.40;;;0.40;;
10715;SDS011;5409;42.620;23.316;2024-01-16T07:26:57;0.30;;;0.30;;
10715;SDS011;5409;42.620;23.316;2024-01-16T07:29:23;0.68;;;0.68;;
10715;SDS011;5409;42.620;23.316;2024-01-16T07:31:48;0.93;;;0.88;;
10715;SDS011;5409;42.620;23.316;2024-01-16T07:34:14;1.00;;;0.95;;
10715;SDS011;5409;42.620;23.316;2024-01-16T07:36:44;0.98;;;0.65;;
10715;SDS011;5409;42.620;23.316;2024-01-16T07:39:10;0.60;;;0.60;;
10715;SDS011;5409;42.620;23.316;2024-01-16T07:41:35;0.40;;;0.40;;
10715;SDS011;5409;42.620;23.316;2024-01-16T07:44:01;0.70;;;0.70;;
10715;SDS011;5409;42.620;23.316;2024-01-16T07:46:26;1.73;;;0.60;;
10715;SDS011;5409;42.620;23.316;2024-01-16T07:48:51;0.63;;;0.63;;
10715;SDS011;5409;42.620;23.316;2024-01-16T07:51:16;1.23;;;0.75;;
10715;SDS011;5409;42.620;23.316;2024-01-16T07:53:42;1.73;;;1.70;;
10715;SDS011;5409;42.620;23.316;2024-01-16T07:56:07;0.82;;;0.82;;
10715;SDS011;5409;42.620;23.316;2024-01-16T07:58:34;0.45;;;0.45;;
10715;SDS011;5409;42.620;23.316;2024-01-16T08:00:59;0.73;;;0.73;;
10715;SDS011;5409;42.620;23.316;2024-01-16T08:03:24;0.60;;;0.60;;
10715;SDS011;5409;42.620;23.316;2024-01-16T08:05:50;0.55;;;0.55;;
10715;SDS011;5409;42.620;23.316;2024-01-16T08:08:16;0.40;;;0.40;;
10715;SDS011;5409;42.620;23.316;2024-01-16T08:10:41;0.32;;;0.32;;
10715;SDS011;5409;42.620;23.316;2024-01-16T08:13:07;1.88;;;1.77;;
10715;SDS011;5409;42.620;23.316;2024-01-16T08:15:33;4.22;;;1.27;;
10715;SDS011;5409;42.620;23.316;2024-01-16T08:17:59;1.20;;;1.10;;
10715;SDS011;5409;42.620;23.316;2024-01-16T08:20:25;2.47;;;1.95;;
10715;SDS011;5409;42.620;23.316;2024-01-16T08:22:51;1.33;;;1.33;;
10715;SDS011;5409;42.620;23.316;2024-01-16T08:25:16;0.65;;;0.65;;
10715;SDS011;5409;42.620;23.316;2024-01-16T08:27:42;1.75;;;1.58;;
10715;SDS011;5409;42.620;23.316;2024-01-16T08:30:08;0.57;;;0.57;;
10715;SDS011;5409;42.620;23.316;2024-01-16T08:32:35;2.35;;;0.85;;
10715;SDS011;5409;42.620;23.316;2024-01-16T08:35:00;0.50;;;0.50;;
10715;SDS011;5409;42.620;23.316;2024-01-16T08:37:26;0.75;;;0.60;;
10715;SDS011;5409;42.620;23.316;2024-01-16T08:39:51;0.90;;;0.60;;
10715;SDS011;5409;42.620;23.316;2024-01-16T08:42:16;0.90;;;0.90;;
10715;SDS011;5409;42.620;23.316;2024-01-16T08:44:43;0.75;;;0.75;;
10715;SDS011;5409;42.620;23.316;2024-01-16T08:47:08;1.85;;;0.73;;
10715;SDS011;5409;42.620;23.316;2024-01-16T08:49:34;2.30;;;0.88;;
10715;SDS011;5409;42.620;23.316;2024-01-16T08:52:00;2.83;;;1.25;;
10715;SDS011;5409;42.620;23.316;2024-01-16T08:54:25;1.27;;;1.17;;
10715;SDS011;5409;42.620;23.316;2024-01-16T08:56:51;1.10;;;1.10;;
10715;SDS011;5409;42.620;23.316;2024-01-16T08:59:17;1.20;;;1.17;;
10715;SDS011;5409;42.620;23.316;2024-01-16T09:01:43;1.80;;;1.70;;
10715;SDS011;5409;42.620;23.316;2024-01-16T09:04:08;1.20;;;1.20;;
10715;SDS011;5409;42.620;23.316;2024-01-16T09:06:34;1.38;;;1.20;;
10715;SDS011;5409;42.620;23.316;2024-01-16T09:08:59;0.75;;;0.75;;
10715;SDS011;5409;42.620;23.316;2024-01-16T09:11:24;1.77;;;1.48;;
10715;SDS011;5409;42.620;23.316;2024-01-16T09:13:50;0.45;;;0.45;;
10715;SDS011;5409;42.620;23.316;2024-01-16T09:16:16;0.70;;;0.68;;
10715;SDS011;5409;42.620;23.316;2024-01-16T09:18:41;3.05;;;1.48;;
10715;SDS011;5409;42.620;23.316;2024-01-16T09:21:07;0.50;;;0.50;;
10715;SDS011;5409;42.620;23.316;2024-01-16T09:23:32;3.47;;;2.05;;
10715;SDS011;5409;42.620;23.316;2024-01-16T09:25:58;2.92;;;1.52;;
10715;SDS011;5409;42.620;23.316;2024-01-16T09:28:23;1.20;;;1.10;;
10715;SDS011;5409;42.620;23.316;2024-01-16T09:30:49;2.47;;;2.25;;
10715;SDS011;5409;42.620;23.316;2024-01-16T09:33:15;3.15;;;1.73;;
10715;SDS011;5409;42.620;23.316;2024-01-16T09:35:41;0.75;;;0.75;;
10715;SDS011;5409;42.620;23.316;2024-01-16T09:38:07;1.27;;;0.88;;
10715;SDS011;5409;42.620;23.316;2024-01-16T09:40:33;1.90;;;1.40;;
10715;SDS011;5409;42.620;23.316;2024-01-16T09:43:00;1.13;;;1.13;;
10715;SDS011;5409;42.620;23.316;2024-01-16T09:45:26;1.08;;;0.98;;
10715;SDS011;5409;42.620;23.316;2024-01-16T09:47:52;0.70;;;0.70;;
10715;SDS011;5409;42.620;23.316;2024-01-16T09:50:18;2.00;;;1.58;;
10715;SDS011;5409;42.620;23.316;2024-01-16T09:52:47;0.77;;;0.77;;
10715;SDS011;5409;42.620;23.316;2024-01-16T09:55:13;1.83;;;1.73;;
10715;SDS011;5409;42.620;23.316;2024-01-16T09:57:40;1.38;;;0.80;;
10715;SDS011;5409;42.620;23.316;2024-01-16T10:00:09;1.20;;;1.20;;
10715;SDS011;5409;42.620;23.316;2024-01-16T10:02:39;1.23;;;1.13;;
10715;SDS011;5409;42.620;23.316;2024-01-16T10:05:06;0.57;;;0.57;;
10715;SDS011;5409;42.620;23.316;2024-01-16T10:07:33;0.88;;;0.77;;
10715;SDS011;5409;42.620;23.316;2024-01-16T10:10:02;2.10;;;1.73;;
10715;SDS011;5409;42.620;23.316;2024-01-16T10:12:27;1.30;;;1.20;;
10715;SDS011;5409;42.620;23.316;2024-01-16T10:14:53;2.00;;;1.80;;
10715;SDS011;5409;42.620;23.316;2024-01-16T10:17:20;3.13;;;1.63;;
10715;SDS011;5409;42.620;23.316;2024-01-16T10:19:49;1.73;;;1.63;;
10715;SDS011;5409;42.620;23.316;2024-01-16T10:22:20;0.93;;;0.93;;
10715;SDS011;5409;42.620;23.316;2024-01-16T10:24:50;0.85;;;0.85;;
10715;SDS011;5409;42.620;23.316;2024-01-16T10:27:45;0.50;;;0.50;;
10715;SDS011;5409;42.620;23.316;2024-01-16T10:30:10;0.68;;;0.68;;
10715;SDS011;5409;42.620;23.316;2024-01-16T10:32:38;1.10;;;1.00;;
10715;SDS011;5409;42.620;23.316;2024-01-16T10:35:05;1.98;;;1.70;;
10715;SDS011;5409;42.620;23.316;2024-01-16T10:40:08;2.08;;;1.15;;
10715;SDS011;5409;42.620;23.316;2024-01-16T10:42:33;1.42;;;0.98;;
10715;SDS011;5409;42.620;23.316;2024-01-16T10:44:59;1.02;;;0.93;;
10715;SDS011;5409;42.620;23.316;2024-01-16T10:47:24;1.25;;;1.15;;
10715;SDS011;5409;42.620;23.316;2024-01-16T10:49:49;0.90;;;0.88;;
10715;SDS011;5409;42.620;23.316;2024-01-16T10:52:15;1.08;;;0.98;;
10715;SDS011;5409;42.620;23.316;2024-01-16T10:54:44;1.33;;;1.25;;
10715;SDS011;5409;42.620;23.316;2024-01-16T10:57:15;0.40;;;0.40;;
10715;SDS011;5409;42.620;23.316;2024-01-16T11:00:00;0.82;;;0.82;;
10715;SDS011;5409;42.620;23.316;2024-01-16T11:02:56;1.10;;;1.00;;
10715;SDS011;5409;42.620;23.316;2024-01-16T11:05:29;1.55;;;1.45;;
10715;SDS011;5409;42.620;23.316;2024-01-16T11:07:58;1.63;;;1.52;;
10715;SDS011;5409;42.620;23.316;2024-01-16T11:10:24;1.02;;;1.02;;
10715;SDS011;5409;42.620;23.316;2024-01-16T11:12:51;1.50;;;1.38;;
10715;SDS011;5409;42.620;23.316;2024-01-16T11:15:18;0.73;;;0.73;;
10715;SDS011;5409;42.620;23.316;2024-01-16T11:17:44;1.10;;;1.05;;
10715;SDS011;5409;42.620;23.316;2024-01-16T11:20:11;3.30;;;1.30;;
10715;SDS011;5409;42.620;23.316;2024-01-16T11:22:39;1.90;;;0.90;;
10715;SDS011;5409;42.620;23.316;2024-01-16T11:25:10;1.02;;;1.02;;
10715;SDS011;5409;42.620;23.316;2024-01-16T11:27:39;0.88;;;0.88;;
10715;SDS011;5409;42.620;23.316;2024-01-16T11:30:06;1.60;;;0.82;;
10715;SDS011;5409;42.620;23.316;2024-01-16T11:32:34;1.30;;;1.20;;
10715;SDS011;5409;42.620;23.316;2024-01-16T11:35:09;3.13;;;1.33;;
10715;SDS011;5409;42.620;23.316;2024-01-16T11:37:36;1.25;;;1.20;;
10715;SDS011;5409;42.620;23.316;2024-01-16T11:42:50;1.50;;;1.40;;
10715;SDS011;5409;42.620;23.316;2024-01-16T11:50:39;1.33;;;1.30;;
10715;SDS011;5409;42.620;23.316;2024-01-16T11:53:05;1.50;;;1.40;;
10715;SDS011;5409;42.620;23.316;2024-01-16T11:55:32;3.63;;;1.98;;
10715;SDS011;5409;42.620;23.316;2024-01-16T12:00:50;1.55;;;1.45;;
10715;SDS011;5409;42.620;23.316;2024-01-16T12:03:18;1.25;;;1.17;;
10715;SDS011;5409;42.620;23.316;2024-01-16T12:05:58;2.55;;;1.70;;
10715;SDS011;5409;42.620;23.316;2024-01-16T12:08:25;1.70;;;1.48;;
10715;SDS011;5409;42.620;23.316;2024-01-16T12:10:51;1.67;;;1.58;;
10715;SDS011;5409;42.620;23.316;2024-01-16T12:13:16;1.90;;;1.80;;
10715;SDS011;5409;42.620;23.316;2024-01-16T12:15:42;1.58;;;1.48;;
10715;SDS011;5409;42.620;23.316;2024-01-16T12:18:08;2.50;;;2.03;;
10715;SDS011;5409;42.620;23.316;2024-01-16T12:20:34;2.05;;;1.45;;
10715;SDS011;5409;42.620;23.316;2024-01-16T12:25:27;1.65;;;1.55;;
10715;SDS011;5409;42.620;23.316;2024-01-16T12:27:59;1.92;;;1.83;;
10715;SDS011;5409;42.620;23.316;2024-01-16T12:30:26;2.05;;;1.75;;
10715;SDS011;5409;42.620;23.316;2024-01-16T12:33:02;4.57;;;2.15;;
10715;SDS011;5409;42.620;23.316;2024-01-16T12:35:37;1.52;;;1.42;;
10715;SDS011;5409;42.620;23.316;2024-01-16T12:38:04;2.75;;;1.33;;
10715;SDS011;5409;42.620;23.316;2024-01-16T12:40:34;1.67;;;1.58;;
10715;SDS011;5409;42.620;23.316;2024-01-16T12:43:01;2.70;;;2.15;;
10715;SDS011;5409;42.620;23.316;2024-01-16T12:45:27;3.97;;;2.55;;
10715;SDS011;5409;42.620;23.316;2024-01-16T12:47:54;2.95;;;1.90;;
10715;SDS011;5409;42.620;23.316;2024-01-16T12:50:23;1.65;;;1.45;;
10715;SDS011;5409;42.620;23.316;2024-01-16T12:52:50;1.95;;;1.85;;
10715;SDS011;5409;42.620;23.316;2024-01-16T12:55:15;2.88;;;1.73;;
10715;SDS011;5409;42.620;23.316;2024-01-16T12:57:42;1.73;;;1.63;;
10715;SDS011;5409;42.620;23.316;2024-01-16T13:02:49;2.72;;;2.30;;
10715;SDS011;5409;42.620;23.316;2024-01-16T13:05:17;2.58;;;2.38;;
10715;SDS011;5409;42.620;23.316;2024-01-16T13:07:43;3.65;;;1.92;;
10715;SDS011;5409;42.620;23.316;2024-01-16T13:10:12;2.10;;;1.77;;
10715;SDS011;5409;42.620;23.316;2024-01-16T13:12:41;2.30;;;2.17;;
10715;SDS011;5409;42.620;23.316;2024-01-16T13:15:07;4.05;;;1.80;;
10715;SDS011;5409;42.620;23.316;2024-01-16T13:17:33;1.20;;;1.10;;
10715;SDS011;5409;42.620;23.316;2024-01-16T13:19:59;1.20;;;1.10;;
10715;SDS011;5409;42.620;23.316;2024-01-16T13:22:25;2.72;;;2.53;;
10715;SDS011;5409;42.620;23.316;2024-01-16T13:24:51;1.02;;;1.02;;
10715;SDS011;5409;42.620;23.316;2024-01-16T13:27:16;2.20;;;1.75;;
10715;SDS011;5409;42.620;23.316;2024-01-16T13:29:41;1.70;;;0.73;;
10715;SDS011;5409;42.620;23.316;2024-01-16T13:32:07;1.52;;;1.42;;
10715;SDS011;5409;42.620;23.316;2024-01-16T13:34:32;1.65;;;1.40;;
10715;SDS011;5409;42.620;23.316;2024-01-16T13:36:58;1.63;;;0.88;;
10715;SDS011;5409;42.620;23.316;2024-01-16T13:39:26;1.55;;;1.45;;
10715;SDS011;5409;42.620;23.316;2024-01-16T13:41:52;1.25;;;1.15;;
10715;SDS011;5409;42.620;23.316;2024-01-16T13:44:18;2.03;;;1.83;;
10715;SDS011;5409;42.620;23.316;2024-01-16T13:46:43;4.70;;;2.00;;
10715;SDS011;5409;42.620;23.316;2024-01-16T13:49:09;1.90;;;1.45;;
10715;SDS011;5409;42.620;23.316;2024-01-16T13:51:34;2.38;;;2.05;;
10715;SDS011;5409;42.620;23.316;2024-01-16T13:54:00;5.55;;;2.78;;
10715;SDS011;5409;42.620;23.316;2024-01-16T13:56:26;4.68;;;2.78;;
10715;SDS011;5409;42.620;23.316;2024-01-16T13:58:51;3.92;;;2.17;;
10715;SDS011;5409;42.620;23.316;2024-01-16T14:01:16;3.92;;;2.88;;
10715;SDS011;5409;42.620;23.316;2024-01-16T14:03:43;4.50;;;2.50;;
10715;SDS011;5409;42.620;23.316;2024-01-16T14:06:11;4.68;;;1.77;;
10715;SDS011;5409;42.620;23.316;2024-01-16T14:08:38;2.05;;;1.88;;
10715;SDS011;5409;42.620;23.316;2024-01-16T14:11:03;2.47;;;1.77;;
10715;SDS011;5409;42.620;23.316;2024-01-16T14:13:29;1.55;;;1.45;;
10715;SDS011;5409;42.620;23.316;2024-01-16T14:15:54;3.53;;;2.00;;
10715;SDS011;5409;42.620;23.316;2024-01-16T14:18:20;2.97;;;2.03;;
10715;SDS011;5409;42.620;23.316;2024-01-16T14:20:45;3.40;;;1.95;;
10715;SDS011;5409;42.620;23.316;2024-01-16T14:23:10;3.75;;;1.92;;
10715;SDS011;5409;42.620;23.316;2024-01-16T14:25:37;3.13;;;2.92;;
10715;SDS011;5409;42.620;23.316;2024-01-16T14:28:03;4.20;;;1.75;;
10715;SDS011;5409;42.620;23.316;2024-01-16T14:30:29;4.10;;;2.95;;
10715;SDS011;5409;42.620;23.316;2024-01-16T14:32:54;3.40;;;2.60;;
10715;SDS011;5409;42.620;23.316;2024-01-16T14:35:21;5.47;;;2.92;;
10715;SDS011;5409;42.620;23.316;2024-01-16T14:37:48;3.67;;;2.88;;
10715;SDS011;5409;42.620;23.316;2024-01-16T14:40:14;3.75;;;2.63;;
10715;SDS011;5409;42.620;23.316;2024-01-16T14:45:13;2.53;;;1.88;;
10715;SDS011;5409;42.620;23.316;2024-01-16T14:47:39;2.50;;;2.17;;
10715;SDS011;5409;42.620;23.316;2024-01-16T14:50:05;5.57;;;2.20;;
10715;SDS011;5409;42.620;23.316;2024-01-16T14:52:31;2.25;;;2.08;;
10715;SDS011;5409;42.620;23.316;2024-01-16T14:55:02;4.10;;;3.08;;
10715;SDS011;5409;42.620;23.316;2024-01-16T14:57:32;2.58;;;2.38;;
10715;SDS011;5409;42.620;23.316;2024-01-16T15:00:06;2.55;;;2.35;;
10715;SDS011;5409;42.620;23.316;2024-01-16T15:02:47;7.93;;;2.80;;
10715;SDS011;5409;42.620;23.316;2024-01-16T15:05:16;4.75;;;3.08;;
10715;SDS011;5409;42.620;23.316;2024-01-16T15:07:42;4.57;;;3.13;;
10715;SDS011;5409;42.620;23.316;2024-01-16T15:10:08;4.47;;;2.42;;
10715;SDS011;5409;42.620;23.316;2024-01-16T15:12:38;3.08;;;2.72;;
10715;SDS011;5409;42.620;23.316;2024-01-16T15:15:04;4.28;;;2.97;;
10715;SDS011;5409;42.620;23.316;2024-01-16T15:17:35;4.07;;;3.30;;
10715;SDS011;5409;42.620;23.316;2024-01-16T15:20:00;7.57;;;4.18;;
10715;SDS011;5409;42.620;23.316;2024-01-16T15:22:26;5.32;;;3.75;;